Time;durP1;ratioP1;P1;durP2;ratioP2;P2;SDS_P1;SDS_P2;PMS_P1;PMS_P2;Temp;Humidity;BMP_temperature;BMP_pressure;BME280_temperature;BME280_humidity;BME280_pressure;Samples;Min_cycle;Max_cycle;Signal;HPM_P1;HPM_P2
2024/04/04 00:13:14;;;;;;;0.00;0.00;;;;;;;;;;31330647;28;20227;-74
2024/04/04 00:28:17;;;;;;;0.00;0.00;;;;;;;;;;31335254;28;20227;-75
2024/04/04 00:43:20;;;;;;;0.00;0.00;;;;;;;;;;31308458;28;20253;-74
2024/04/04 00:58:31;;;;;;;0.00;0.00;;;;;;;;;;31322423;28;20235;-74
2024/04/04 01:13:34;;;;;;;0.00;0.00;;;;;;;;;;31326674;28;20235;-74
2024/04/04 01:28:37;;;;;;;0.00;0.00;;;;;;;;;;31318989;28;20676;-74
2024/04/04 01:43:41;;;;;;;0.00;0.00;;;;;;;;;;31314146;28;20242;-74
2024/04/04 01:58:50;;;;;;;0.00;0.00;;;;;;;;;;31281786;28;20246;-74
2024/04/04 02:13:55;;;;;;;0.00;0.00;;;;;;;;;;31189104;28;20576;-74
2024/04/04 02:28:59;;;;;;;0.00;0.00;;;;;;;;;;31198251;28;20239;-74
2024/04/04 02:44:02;;;;;;;0.00;0.00;;;;;;;;;;31202363;28;20273;-74
2024/04/04 02:59:11;;;;;;;0.00;0.00;;;;;;;;;;31197231;28;21275;-74
2024/04/04 03:14:15;;;;;;;0.00;0.00;;;;;;;;;;31208289;28;20238;-74
2024/04/04 03:29:18;;;;;;;0.00;0.00;;;;;;;;;;31196293;28;20665;-75
2024/04/04 03:44:21;;;;;;;0.00;0.00;;;;;;;;;;31201196;28;20235;-73
2024/04/04 03:59:32;;;;;;;0.00;0.00;;;;;;;;;;31234459;28;20251;-74
2024/04/04 04:14:35;;;;;;;0.00;0.00;;;;;;;;;;31307824;28;20231;-74
2024/04/04 04:29:39;;;;;;;0.00;0.00;;;;;;;;;;31317227;28;20658;-74
2024/04/04 04:44:42;;;;;;;0.00;0.00;;;;;;;;;;31308540;28;20238;-74
2024/04/04 04:59:52;;;;;;;0.00;0.00;;;;;;;;;;31253883;28;20251;-74
2024/04/04 05:14:55;;;;;;;0.00;0.00;;;;;;;;;;31067681;28;20308;-73
2024/04/04 05:30:05;;;;;;;0.00;0.00;;;;;;;;;;31113421;28;21158;-75
2024/04/04 05:45:09;;;;;;;0.00;0.00;;;;;;;;;;31198325;28;20571;-75
2024/04/04 06:00:19;;;;;;;0.00;0.00;;;;;;;;;;31250113;28;20238;-74
2024/04/04 06:15:22;;;;;;;0.00;0.00;;;;;;;;;;31310552;28;21205;-74
2024/04/04 06:30:26;;;;;;;0.00;0.00;;;;;;;;;;31326999;28;20239;-74
2024/04/04 06:45:29;;;;;;;0.00;0.00;;;;;;;;;;31351799;28;20227;-74
2024/04/04 07:00:39;;;;;;;0.00;0.00;;;;;;;;;;31339538;28;20245;-75
2024/04/04 07:15:42;;;;;;;0.00;0.00;;;;;;;;;;31332821;28;20235;-74
2024/04/04 07:30:46;;;;;;;0.00;0.00;;;;;;;;;;31319347;28;20235;-74
2024/04/04 07:45:49;;;;;;;0.00;0.00;;;;;;;;;;31323709;28;20242;-74
2024/04/04 08:00:59;;;;;;;0.00;0.00;;;;;;;;;;31281128;28;20255;-74
2024/04/04 08:16:04;;;;;;;0.00;0.00;;;;;;;;;;31304991;28;20242;-75
2024/04/04 08:31:07;;;;;;;0.00;0.00;;;;;;;;;;31347559;28;20231;-75
2024/04/04 08:46:11;;;;;;;0.00;0.00;;;;;;;;;;31357093;28;20266;-75
2024/04/04 09:01:21;;;;;;;0.00;0.00;;;;;;;;;;31350266;28;20664;-75
2024/04/04 09:16:24;;;;;;;0.00;0.00;;;;;;;;;;31347728;28;20242;-75
2024/04/04 09:31:29;;;;;;;0.00;0.00;;;;;;;;;;31347433;28;20235;-75
2024/04/04 09:46:37;;;;;;;0.00;0.00;;;;;;;;;;31338964;28;20234;-76
2024/04/04 10:01:47;;;;;;;0.00;0.00;;;;;;;;;;31308138;28;20227;-75
2024/04/04 10:16:53;;;;;;;0.00;0.00;;;;;;;;;;31237792;28;20234;-75
2024/04/04 10:31:56;;;;;;;0.00;0.00;;;;;;;;;;31219656;28;20561;-74
2024/04/04 10:46:59;;;;;;;0.00;0.00;;;;;;;;;;31206950;28;20689;-75
2024/04/04 11:02:10;;;;;;;0.00;0.00;;;;;;;;;;31202110;28;20232;-75
2024/04/04 11:17:13;;;;;;;0.00;0.00;;;;;;;;;;31210969;28;20261;-75
2024/04/04 11:32:17;;;;;;;0.00;0.00;;;;;;;;;;31227682;28;20565;-75
2024/04/04 11:47:20;;;;;;;0.00;0.00;;;;;;;;;;31228947;28;20841;-75
2024/04/04 12:02:30;;;;;;;0.00;0.00;;;;;;;;;;31252106;28;20231;-75
2024/04/04 12:17:36;;;;;;;0.00;0.00;;;;;;;;;;31335127;28;20630;-75
2024/04/04 12:32:39;;;;;;;0.00;0.00;;;;;;;;;;31320306;28;20722;-75
2024/04/04 12:47:42;;;;;;;0.00;0.00;;;;;;;;;;31317985;28;20895;-74
2024/04/04 13:02:52;;;;;;;0.00;0.00;;;;;;;;;;31315559;28;20577;-75
2024/04/04 13:17:56;;;;;;;0.00;0.00;;;;;;;;;;31331747;28;22441;-75
2024/04/04 13:32:59;;;;;;;0.00;0.00;;;;;;;;;;31333463;28;20239;-75
2024/04/04 13:48:06;;;;;;;0.00;0.00;;;;;;;;;;31330293;28;20230;-75
2024/04/04 14:03:16;;;;;;;0.00;0.00;;;;;;;;;;31338384;28;20229;-75
2024/04/04 14:18:20;;;;;;;0.00;0.00;;;;;;;;;;31327019;28;20505;-76
2024/04/04 14:33:23;;;;;;;0.00;0.00;;;;;;;;;;31320536;28;20706;-76
2024/04/04 14:48:26;;;;;;;0.00;0.00;;;;;;;;;;31327565;28;20238;-77
2024/04/04 15:03:38;;;;;;;0.00;0.00;;;;;;;;;;31355487;28;20280;-77
2024/04/04 15:18:42;;;;;;;0.00;0.00;;;;;;;;;;31358972;28;20243;-76
2024/04/04 15:33:45;;;;;;;0.00;0.00;;;;;;;;;;31316130;28;20235;-78
2024/04/04 15:48:49;;;;;;;0.00;0.00;;;;;;;;;;31336748;28;20231;-77
2024/04/04 16:03:58;;;;;;;0.00;0.00;;;;;;;;;;31258206;28;20557;-77
2024/04/04 16:19:02;;;;;;;0.00;0.00;;;;;;;;;;31210688;28;20223;-76
2024/04/04 16:34:05;;;;;;;0.00;0.00;;;;;;;;;;31224880;28;20299;-76
2024/04/04 16:49:08;;;;;;;0.00;0.00;;;;;;;;;;31210961;28;20230;-76
2024/04/04 17:04:18;;;;;;;0.00;0.00;;;;;;;;;;31301636;28;20675;-78
2024/04/04 17:19:22;;;;;;;0.00;0.00;;;;;;;;;;31361427;28;20679;-78
2024/04/04 17:34:25;;;;;;;0.00;0.00;;;;;;;;;;31358639;28;20235;-78
2024/04/04 17:49:28;;;;;;;0.00;0.00;;;;;;;;;;31347107;28;20245;-79
2024/04/04 18:04:38;;;;;;;0.00;0.00;;;;;;;;;;31314821;28;20235;-78
2024/04/04 18:19:42;;;;;;;0.00;0.00;;;;;;;;;;31293059;28;20235;-78
2024/04/04 18:34:46;;;;;;;0.00;0.00;;;;;;;;;;31338789;28;20230;-78
2024/04/04 18:49:49;;;;;;;0.00;0.00;;;;;;;;;;31325430;28;20647;-78
2024/04/04 19:04:59;;;;;;;0.00;0.00;;;;;;;;;;31323247;28;20225;-78
2024/04/04 19:20:04;;;;;;;0.00;0.00;;;;;;;;;;31296034;28;20615;-79
2024/04/04 19:35:08;;;;;;;0.00;0.00;;;;;;;;;;31323787;28;20226;-78
2024/04/04 19:50:12;;;;;;;0.00;0.00;;;;;;;;;;31338681;28;20231;-78
2024/04/04 20:05:21;;;;;;;0.00;0.00;;;;;;;;;;31336739;28;20581;-79
2024/04/04 20:20:25;;;;;;;0.00;0.00;;;;;;;;;;31328226;28;20536;-78
2024/04/04 20:35:29;;;;;;;0.00;0.00;;;;;;;;;;31324781;28;20269;-78
2024/04/04 20:50:32;;;;;;;0.00;0.00;;;;;;;;;;31325997;28;20242;-78
2024/04/04 21:06:03;;;;;;;0.00;0.00;;;;;;;;;;31333636;28;20233;-78
2024/04/04 21:21:07;;;;;;;0.00;0.00;;;;;;;;;;31336273;28;20325;-78
2024/04/04 21:36:15;;;;;;;0.00;0.00;;;;;;;;;;31338763;28;20230;-78
2024/04/04 21:51:18;;;;;;;0.00;0.00;;;;;;;;;;31334585;28;20229;-78
2024/04/04 22:06:49;;;;;;;0.00;0.00;;;;;;;;;;31329206;28;20226;-78
2024/04/04 22:21:53;;;;;;;0.00;0.00;;;;;;;;;;31273810;28;20233;-80
2024/04/04 22:36:56;;;;;;;0.00;0.00;;;;;;;;;;31359346;28;20240;-79
2024/04/04 22:52:00;;;;;;;0.00;0.00;;;;;;;;;;31356798;28;20317;-80
2024/04/04 23:07:30;;;;;;;0.00;0.00;;;;;;;;;;31379783;28;20239;-80
2024/04/04 23:22:34;;;;;;;0.00;0.00;;;;;;;;;;31382387;28;20227;-80
2024/04/04 23:37:38;;;;;;;0.00;0.00;;;;;;;;;;31354914;28;20235;-80
2024/04/04 23:52:41;;;;;;;0.00;0.00;;;;;;;;;;31367921;28;20253;-78
